sensor_id;sensor_type;location;lat;lon;timestamp;P1;durP1;ratioP1;P2;durP2;ratioP2
71572;SDS011;59408;51.032;9.410;2022-10-23T00:00:28;7.90;;;2.37;;
71572;SDS011;59408;51.032;9.410;2022-10-23T00:02:56;9.82;;;2.55;;
71572;SDS011;59408;51.032;9.410;2022-10-23T00:05:23;7.35;;;2.40;;
71572;SDS011;59408;51.032;9.410;2022-10-23T00:07:52;9.32;;;2.17;;
71572;SDS011;59408;51.032;9.410;2022-10-23T00:10:20;6.75;;;2.70;;
71572;SDS011;59408;51.032;9.410;2022-10-23T00:12:48;6.23;;;2.10;;
71572;SDS011;59408;51.032;9.410;2022-10-23T00:15:17;9.20;;;2.13;;
71572;SDS011;59408;51.032;9.410;2022-10-23T00:17:45;8.88;;;2.55;;
71572;SDS011;59408;51.032;9.410;2022-10-23T00:20:14;7.60;;;2.10;;
71572;SDS011;59408;51.032;9.410;2022-10-23T00:22:41;7.85;;;2.30;;
71572;SDS011;59408;51.032;9.410;2022-10-23T00:25:08;9.07;;;2.30;;
71572;SDS011;59408;51.032;9.410;2022-10-23T00:27:35;5.78;;;1.90;;
71572;SDS011;59408;51.032;9.410;2022-10-23T00:30:03;7.97;;;2.05;;
71572;SDS011;59408;51.032;9.410;2022-10-23T00:32:31;6.82;;;2.15;;
71572;SDS011;59408;51.032;9.410;2022-10-23T00:35:03;6.72;;;2.20;;
71572;SDS011;59408;51.032;9.410;2022-10-23T00:37:31;8.53;;;1.97;;
71572;SDS011;59408;51.032;9.410;2022-10-23T00:39:58;6.80;;;1.92;;
71572;SDS011;59408;51.032;9.410;2022-10-23T00:42:24;8.95;;;2.45;;
71572;SDS011;59408;51.032;9.410;2022-10-23T00:45:12;5.70;;;1.85;;
71572;SDS011;59408;51.032;9.410;2022-10-23T00:47:42;6.32;;;2.17;;
71572;SDS011;59408;51.032;9.410;2022-10-23T00:50:08;8.87;;;2.30;;
71572;SDS011;59408;51.032;9.410;2022-10-23T00:52:38;8.05;;;1.92;;
71572;SDS011;59408;51.032;9.410;2022-10-23T00:55:08;7.63;;;2.50;;
71572;SDS011;59408;51.032;9.410;2022-10-23T00:57:35;7.32;;;1.85;;
71572;SDS011;59408;51.032;9.410;2022-10-23T01:00:05;5.78;;;2.08;;
71572;SDS011;59408;51.032;9.410;2022-10-23T01:02:32;7.30;;;2.33;;
71572;SDS011;59408;51.032;9.410;2022-10-23T01:04:59;5.22;;;1.92;;
71572;SDS011;59408;51.032;9.410;2022-10-23T01:07:27;7.28;;;2.08;;
71572;SDS011;59408;51.032;9.410;2022-10-23T01:10:01;5.88;;;2.00;;
71572;SDS011;59408;51.032;9.410;2022-10-23T01:12:37;7.55;;;2.40;;
71572;SDS011;59408;51.032;9.410;2022-10-23T01:15:10;7.87;;;2.20;;
71572;SDS011;59408;51.032;9.410;2022-10-23T01:17:41;8.23;;;2.20;;
71572;SDS011;59408;51.032;9.410;2022-10-23T01:20:19;10.30;;;2.30;;
71572;SDS011;59408;51.032;9.410;2022-10-23T01:23:03;6.78;;;2.00;;
71572;SDS011;59408;51.032;9.410;2022-10-23T01:25:44;7.50;;;2.05;;
71572;SDS011;59408;51.032;9.410;2022-10-23T01:28:43;6.90;;;1.70;;
71572;SDS011;59408;51.032;9.410;2022-10-23T01:31:16;9.25;;;2.00;;
71572;SDS011;59408;51.032;9.410;2022-10-23T01:33:47;5.60;;;1.95;;
71572;SDS011;59408;51.032;9.410;2022-10-23T01:36:22;8.85;;;2.00;;
71572;SDS011;59408;51.032;9.410;2022-10-23T01:38:52;7.65;;;2.10;;
71572;SDS011;59408;51.032;9.410;2022-10-23T01:41:26;13.03;;;2.47;;
71572;SDS011;59408;51.032;9.410;2022-10-23T01:43:58;8.60;;;2.35;;
71572;SDS011;59408;51.032;9.410;2022-10-23T01:46:29;7.18;;;2.45;;
71572;SDS011;59408;51.032;9.410;2022-10-23T01:48:58;5.05;;;2.10;;
71572;SDS011;59408;51.032;9.410;2022-10-23T01:51:26;8.20;;;2.88;;
71572;SDS011;59408;51.032;9.410;2022-10-23T01:53:57;7.70;;;1.80;;
71572;SDS011;59408;51.032;9.410;2022-10-23T01:56:26;8.15;;;2.30;;
71572;SDS011;59408;51.032;9.410;2022-10-23T01:58:58;7.53;;;2.40;;
71572;SDS011;59408;51.032;9.410;2022-10-23T02:01:28;6.50;;;2.40;;
71572;SDS011;59408;51.032;9.410;2022-10-23T02:03:58;6.10;;;2.15;;
71572;SDS011;59408;51.032;9.410;2022-10-23T02:06:26;6.70;;;2.10;;
71572;SDS011;59408;51.032;9.410;2022-10-23T02:08:53;7.88;;;2.40;;
71572;SDS011;59408;51.032;9.410;2022-10-23T02:11:20;6.30;;;2.20;;
71572;SDS011;59408;51.032;9.410;2022-10-23T02:13:48;8.80;;;2.20;;
71572;SDS011;59408;51.032;9.410;2022-10-23T02:16:23;6.65;;;2.10;;
71572;SDS011;59408;51.032;9.410;2022-10-23T02:18:58;6.70;;;2.10;;
71572;SDS011;59408;51.032;9.410;2022-10-23T02:21:33;7.90;;;2.00;;
71572;SDS011;59408;51.032;9.410;2022-10-23T02:24:08;6.55;;;2.17;;
71572;SDS011;59408;51.032;9.410;2022-10-23T02:26:39;8.75;;;2.20;;
71572;SDS011;59408;51.032;9.410;2022-10-23T02:29:09;6.03;;;2.03;;
71572;SDS011;59408;51.032;9.410;2022-10-23T02:31:41;7.40;;;1.87;;
71572;SDS011;59408;51.032;9.410;2022-10-23T02:34:07;10.50;;;2.28;;
71572;SDS011;59408;51.032;9.410;2022-10-23T02:36:34;6.97;;;2.28;;
71572;SDS011;59408;51.032;9.410;2022-10-23T02:39:01;6.88;;;2.13;;
71572;SDS011;59408;51.032;9.410;2022-10-23T02:41:31;6.63;;;2.13;;
71572;SDS011;59408;51.032;9.410;2022-10-23T02:44:06;6.53;;;1.63;;
71572;SDS011;59408;51.032;9.410;2022-10-23T02:46:52;6.70;;;1.73;;
71572;SDS011;59408;51.032;9.410;2022-10-23T02:49:26;6.63;;;2.03;;
71572;SDS011;59408;51.032;9.410;2022-10-23T02:52:02;6.97;;;2.13;;
71572;SDS011;59408;51.032;9.410;2022-10-23T02:54:37;7.22;;;2.50;;
71572;SDS011;59408;51.032;9.410;2022-10-23T02:57:15;5.97;;;1.87;;
71572;SDS011;59408;51.032;9.410;2022-10-23T02:59:50;6.18;;;2.47;;
71572;SDS011;59408;51.032;9.410;2022-10-23T03:02:27;6.50;;;2.20;;
71572;SDS011;59408;51.032;9.410;2022-10-23T03:05:00;5.28;;;1.80;;
71572;SDS011;59408;51.032;9.410;2022-10-23T03:07:28;7.53;;;2.38;;
71572;SDS011;59408;51.032;9.410;2022-10-23T03:09:55;8.63;;;2.20;;
71572;SDS011;59408;51.032;9.410;2022-10-23T03:12:21;8.40;;;2.10;;
71572;SDS011;59408;51.032;9.410;2022-10-23T03:14:48;7.60;;;2.20;;
71572;SDS011;59408;51.032;9.410;2022-10-23T03:17:15;7.72;;;2.20;;
71572;SDS011;59408;51.032;9.410;2022-10-23T03:19:42;6.03;;;2.20;;
71572;SDS011;59408;51.032;9.410;2022-10-23T03:22:09;6.70;;;2.00;;
71572;SDS011;59408;51.032;9.410;2022-10-23T03:24:36;5.78;;;2.20;;
71572;SDS011;59408;51.032;9.410;2022-10-23T03:27:02;6.45;;;2.33;;
71572;SDS011;59408;51.032;9.410;2022-10-23T03:29:29;5.88;;;2.00;;
71572;SDS011;59408;51.032;9.410;2022-10-23T03:31:55;6.05;;;2.13;;
71572;SDS011;59408;51.032;9.410;2022-10-23T03:34:22;6.73;;;1.80;;
71572;SDS011;59408;51.032;9.410;2022-10-23T03:36:50;5.93;;;1.92;;
71572;SDS011;59408;51.032;9.410;2022-10-23T03:39:16;8.77;;;2.45;;
71572;SDS011;59408;51.032;9.410;2022-10-23T03:41:43;7.57;;;2.20;;
71572;SDS011;59408;51.032;9.410;2022-10-23T03:44:09;5.20;;;2.08;;
71572;SDS011;59408;51.032;9.410;2022-10-23T03:46:36;5.57;;;2.00;;
71572;SDS011;59408;51.032;9.410;2022-10-23T03:49:02;7.07;;;2.17;;
71572;SDS011;59408;51.032;9.410;2022-10-23T03:51:29;5.55;;;2.20;;
71572;SDS011;59408;51.032;9.410;2022-10-23T03:53:57;5.50;;;1.88;;
71572;SDS011;59408;51.032;9.410;2022-10-23T03:56:23;6.93;;;2.30;;
71572;SDS011;59408;51.032;9.410;2022-10-23T03:58:50;5.20;;;1.93;;
71572;SDS011;59408;51.032;9.410;2022-10-23T04:01:16;8.80;;;2.10;;
71572;SDS011;59408;51.032;9.410;2022-10-23T04:03:43;6.72;;;2.20;;
71572;SDS011;59408;51.032;9.410;2022-10-23T04:06:09;6.30;;;1.80;;
71572;SDS011;59408;51.032;9.410;2022-10-23T04:08:36;8.98;;;2.38;;
71572;SDS011;59408;51.032;9.410;2022-10-23T04:11:04;6.67;;;2.10;;
71572;SDS011;59408;51.032;9.410;2022-10-23T04:13:31;7.43;;;2.15;;
71572;SDS011;59408;51.032;9.410;2022-10-23T04:15:57;5.53;;;2.10;;
71572;SDS011;59408;51.032;9.410;2022-10-23T04:18:24;9.27;;;2.10;;
71572;SDS011;59408;51.032;9.410;2022-10-23T04:20:50;8.30;;;2.13;;
71572;SDS011;59408;51.032;9.410;2022-10-23T04:23:17;6.37;;;2.30;;
71572;SDS011;59408;51.032;9.410;2022-10-23T04:25:44;6.93;;;2.28;;
71572;SDS011;59408;51.032;9.410;2022-10-23T04:28:17;10.63;;;2.40;;
71572;SDS011;59408;51.032;9.410;2022-10-23T04:30:43;7.60;;;2.30;;
71572;SDS011;59408;51.032;9.410;2022-10-23T04:33:10;6.88;;;2.25;;
71572;SDS011;59408;51.032;9.410;2022-10-23T04:35:37;6.40;;;1.80;;
71572;SDS011;59408;51.032;9.410;2022-10-23T04:38:03;7.68;;;2.03;;
71572;SDS011;59408;51.032;9.410;2022-10-23T04:40:30;6.35;;;2.05;;
71572;SDS011;59408;51.032;9.410;2022-10-23T04:42:56;10.07;;;1.95;;
71572;SDS011;59408;51.032;9.410;2022-10-23T04:45:24;6.15;;;2.20;;
71572;SDS011;59408;51.032;9.410;2022-10-23T04:47:51;5.47;;;1.90;;
71572;SDS011;59408;51.032;9.410;2022-10-23T04:50:18;5.85;;;2.58;;
71572;SDS011;59408;51.032;9.410;2022-10-23T04:52:44;8.10;;;2.22;;
71572;SDS011;59408;51.032;9.410;2022-10-23T04:55:11;8.63;;;2.50;;
71572;SDS011;59408;51.032;9.410;2022-10-23T04:57:38;7.22;;;2.65;;
71572;SDS011;59408;51.032;9.410;2022-10-23T05:00:05;8.20;;;2.33;;
71572;SDS011;59408;51.032;9.410;2022-10-23T05:02:35;6.68;;;2.05;;
71572;SDS011;59408;51.032;9.410;2022-10-23T05:05:01;7.43;;;2.40;;
71572;SDS011;59408;51.032;9.410;2022-10-23T05:07:28;6.95;;;2.80;;
71572;SDS011;59408;51.032;9.410;2022-10-23T05:09:55;7.93;;;2.33;;
71572;SDS011;59408;51.032;9.410;2022-10-23T05:12:21;7.83;;;2.83;;
71572;SDS011;59408;51.032;9.410;2022-10-23T05:14:48;8.32;;;3.28;;
71572;SDS011;59408;51.032;9.410;2022-10-23T05:17:15;9.63;;;3.03;;
71572;SDS011;59408;51.032;9.410;2022-10-23T05:19:47;10.73;;;3.20;;
71572;SDS011;59408;51.032;9.410;2022-10-23T05:22:18;9.30;;;3.30;;
71572;SDS011;59408;51.032;9.410;2022-10-23T05:24:45;7.10;;;3.33;;
71572;SDS011;59408;51.032;9.410;2022-10-23T05:27:16;14.18;;;3.85;;
71572;SDS011;59408;51.032;9.410;2022-10-23T05:29:42;12.15;;;4.25;;
71572;SDS011;59408;51.032;9.410;2022-10-23T05:32:09;19.02;;;3.83;;
71572;SDS011;59408;51.032;9.410;2022-10-23T05:34:38;10.95;;;3.58;;
71572;SDS011;59408;51.032;9.410;2022-10-23T05:37:08;8.07;;;2.83;;
71572;SDS011;59408;51.032;9.410;2022-10-23T05:39:37;8.20;;;3.00;;
71572;SDS011;59408;51.032;9.410;2022-10-23T05:42:04;7.47;;;3.20;;
71572;SDS011;59408;51.032;9.410;2022-10-23T05:44:31;10.80;;;3.25;;
71572;SDS011;59408;51.032;9.410;2022-10-23T05:46:57;13.10;;;3.25;;
71572;SDS011;59408;51.032;9.410;2022-10-23T05:49:24;6.83;;;3.43;;
71572;SDS011;59408;51.032;9.410;2022-10-23T05:51:50;9.95;;;3.30;;
71572;SDS011;59408;51.032;9.410;2022-10-23T05:54:19;7.13;;;3.50;;
71572;SDS011;59408;51.032;9.410;2022-10-23T05:56:45;6.78;;;3.13;;
71572;SDS011;59408;51.032;9.410;2022-10-23T05:59:12;6.10;;;2.97;;
71572;SDS011;59408;51.032;9.410;2022-10-23T06:01:38;9.90;;;3.60;;
71572;SDS011;59408;51.032;9.410;2022-10-23T06:04:05;7.65;;;3.58;;
71572;SDS011;59408;51.032;9.410;2022-10-23T06:06:32;7.53;;;3.50;;
71572;SDS011;59408;51.032;9.410;2022-10-23T06:08:58;7.65;;;3.60;;
71572;SDS011;59408;51.032;9.410;2022-10-23T06:11:26;12.93;;;3.53;;
71572;SDS011;59408;51.032;9.410;2022-10-23T06:13:53;6.43;;;3.10;;
71572;SDS011;59408;51.032;9.410;2022-10-23T06:16:20;8.27;;;3.55;;
71572;SDS011;59408;51.032;9.410;2022-10-23T06:18:48;9.38;;;3.75;;
71572;SDS011;59408;51.032;9.410;2022-10-23T06:21:14;7.82;;;3.88;;
71572;SDS011;59408;51.032;9.410;2022-10-23T06:23:42;7.30;;;3.92;;
71572;SDS011;59408;51.032;9.410;2022-10-23T06:26:11;8.37;;;3.60;;
71572;SDS011;59408;51.032;9.410;2022-10-23T06:28:40;14.57;;;5.47;;
71572;SDS011;59408;51.032;9.410;2022-10-23T06:31:08;14.90;;;5.55;;
71572;SDS011;59408;51.032;9.410;2022-10-23T06:33:36;9.15;;;4.22;;
71572;SDS011;59408;51.032;9.410;2022-10-23T06:36:03;17.30;;;5.00;;
71572;SDS011;59408;51.032;9.410;2022-10-23T06:38:30;14.03;;;4.10;;
71572;SDS011;59408;51.032;9.410;2022-10-23T06:40:57;10.40;;;3.70;;
71572;SDS011;59408;51.032;9.410;2022-10-23T06:43:23;8.70;;;3.67;;
71572;SDS011;59408;51.032;9.410;2022-10-23T06:45:51;11.85;;;4.30;;
71572;SDS011;59408;51.032;9.410;2022-10-23T06:48:18;6.93;;;3.40;;
71572;SDS011;59408;51.032;9.410;2022-10-23T06:50:44;7.00;;;3.20;;
71572;SDS011;59408;51.032;9.410;2022-10-23T06:53:11;8.18;;;3.40;;
71572;SDS011;59408;51.032;9.410;2022-10-23T06:55:37;6.85;;;3.20;;
71572;SDS011;59408;51.032;9.410;2022-10-23T06:58:04;7.13;;;3.22;;
71572;SDS011;59408;51.032;9.410;2022-10-23T07:00:31;7.45;;;3.92;;
71572;SDS011;59408;51.032;9.410;2022-10-23T07:02:59;7.00;;;3.60;;
71572;SDS011;59408;51.032;9.410;2022-10-23T07:05:25;7.05;;;3.65;;
71572;SDS011;59408;51.032;9.410;2022-10-23T07:07:52;7.72;;;3.90;;
71572;SDS011;59408;51.032;9.410;2022-10-23T07:10:18;8.15;;;4.18;;
71572;SDS011;59408;51.032;9.410;2022-10-23T07:12:45;7.38;;;3.80;;
71572;SDS011;59408;51.032;9.410;2022-10-23T07:15:11;8.53;;;3.40;;
71572;SDS011;59408;51.032;9.410;2022-10-23T07:17:38;12.55;;;5.65;;
71572;SDS011;59408;51.032;9.410;2022-10-23T07:20:06;25.20;;;11.73;;
71572;SDS011;59408;51.032;9.410;2022-10-23T07:22:33;13.43;;;7.25;;
71572;SDS011;59408;51.032;9.410;2022-10-23T07:25:00;11.57;;;6.93;;
71572;SDS011;59408;51.032;9.410;2022-10-23T07:27:26;11.10;;;5.17;;
71572;SDS011;59408;51.032;9.410;2022-10-23T07:29:53;7.70;;;4.00;;
71572;SDS011;59408;51.032;9.410;2022-10-23T07:32:20;8.50;;;4.53;;
71572;SDS011;59408;51.032;9.410;2022-10-23T07:34:46;7.97;;;4.32;;
71572;SDS011;59408;51.032;9.410;2022-10-23T07:37:14;8.27;;;4.25;;
71572;SDS011;59408;51.032;9.410;2022-10-23T07:39:41;8.70;;;4.67;;
71572;SDS011;59408;51.032;9.410;2022-10-23T07:42:07;9.00;;;4.72;;
71572;SDS011;59408;51.032;9.410;2022-10-23T07:44:34;9.48;;;5.13;;
71572;SDS011;59408;51.032;9.410;2022-10-23T07:47:03;11.77;;;6.05;;
71572;SDS011;59408;51.032;9.410;2022-10-23T07:49:29;10.93;;;4.90;;
71572;SDS011;59408;51.032;9.410;2022-10-23T07:51:56;12.83;;;5.90;;
71572;SDS011;59408;51.032;9.410;2022-10-23T07:54:25;9.55;;;4.63;;
71572;SDS011;59408;51.032;9.410;2022-10-23T07:56:52;8.75;;;4.43;;
71572;SDS011;59408;51.032;9.410;2022-10-23T07:59:20;8.82;;;4.15;;
71572;SDS011;59408;51.032;9.410;2022-10-23T08:01:47;8.27;;;4.07;;
71572;SDS011;59408;51.032;9.410;2022-10-23T08:04:19;7.33;;;3.63;;
71572;SDS011;59408;51.032;9.410;2022-10-23T08:06:45;8.52;;;4.05;;
71572;SDS011;59408;51.032;9.410;2022-10-23T08:09:12;9.43;;;4.22;;
71572;SDS011;59408;51.032;9.410;2022-10-23T08:11:40;7.35;;;3.80;;
71572;SDS011;59408;51.032;9.410;2022-10-23T08:14:06;8.32;;;3.88;;
71572;SDS011;59408;51.032;9.410;2022-10-23T08:16:35;6.50;;;3.30;;
71572;SDS011;59408;51.032;9.410;2022-10-23T08:19:04;9.35;;;3.53;;
71572;SDS011;59408;51.032;9.410;2022-10-23T08:21:32;6.60;;;3.30;;
71572;SDS011;59408;51.032;9.410;2022-10-23T08:23:59;6.75;;;3.05;;
71572;SDS011;59408;51.032;9.410;2022-10-23T08:26:26;7.43;;;3.53;;
71572;SDS011;59408;51.032;9.410;2022-10-23T08:28:55;6.50;;;3.40;;
71572;SDS011;59408;51.032;9.410;2022-10-23T08:31:23;6.38;;;3.60;;
71572;SDS011;59408;51.032;9.410;2022-10-23T08:33:50;7.80;;;4.05;;
71572;SDS011;59408;51.032;9.410;2022-10-23T08:36:18;7.15;;;3.50;;
71572;SDS011;59408;51.032;9.410;2022-10-23T08:38:47;7.10;;;4.30;;
71572;SDS011;59408;51.032;9.410;2022-10-23T08:41:17;8.63;;;3.17;;
71572;SDS011;59408;51.032;9.410;2022-10-23T08:43:50;6.00;;;2.80;;
71572;SDS011;59408;51.032;9.410;2022-10-23T08:46:24;6.00;;;3.20;;
71572;SDS011;59408;51.032;9.410;2022-10-23T08:48:55;6.53;;;3.00;;
71572;SDS011;59408;51.032;9.410;2022-10-23T08:51:33;6.40;;;3.13;;
71572;SDS011;59408;51.032;9.410;2022-10-23T08:54:05;5.97;;;2.60;;
71572;SDS011;59408;51.032;9.410;2022-10-23T08:56:38;5.10;;;2.53;;
71572;SDS011;59408;51.032;9.410;2022-10-23T08:59:10;5.90;;;2.85;;
71572;SDS011;59408;51.032;9.410;2022-10-23T09:01:44;5.95;;;3.10;;
71572;SDS011;59408;51.032;9.410;2022-10-23T09:04:14;6.07;;;3.10;;
71572;SDS011;59408;51.032;9.410;2022-10-23T09:06:43;5.73;;;2.70;;
71572;SDS011;59408;51.032;9.410;2022-10-23T09:09:22;5.82;;;2.72;;
71572;SDS011;59408;51.032;9.410;2022-10-23T09:12:06;5.97;;;3.00;;
71572;SDS011;59408;51.032;9.410;2022-10-23T09:14:52;6.10;;;2.95;;
71572;SDS011;59408;51.032;9.410;2022-10-23T09:17:27;5.90;;;3.08;;
71572;SDS011;59408;51.032;9.410;2022-10-23T09:19:58;6.80;;;3.03;;
71572;SDS011;59408;51.032;9.410;2022-10-23T09:22:30;6.40;;;2.80;;
71572;SDS011;59408;51.032;9.410;2022-10-23T09:24:57;6.60;;;2.72;;
71572;SDS011;59408;51.032;9.410;2022-10-23T09:27:24;5.88;;;2.95;;
71572;SDS011;59408;51.032;9.410;2022-10-23T09:29:51;5.95;;;2.55;;
71572;SDS011;59408;51.032;9.410;2022-10-23T09:32:19;6.50;;;2.97;;
71572;SDS011;59408;51.032;9.410;2022-10-23T09:34:59;6.50;;;3.30;;
71572;SDS011;59408;51.032;9.410;2022-10-23T09:37:27;9.10;;;3.40;;
71572;SDS011;59408;51.032;9.410;2022-10-23T09:42:49;6.25;;;3.05;;
71572;SDS011;59408;51.032;9.410;2022-10-23T09:45:25;6.07;;;2.73;;
71572;SDS011;59408;51.032;9.410;2022-10-23T09:48:11;6.32;;;2.70;;
71572;SDS011;59408;51.032;9.410;2022-10-23T09:50:42;5.72;;;3.03;;
71572;SDS011;59408;51.032;9.410;2022-10-23T09:53:14;6.93;;;2.75;;
71572;SDS011;59408;51.032;9.410;2022-10-23T09:55:49;5.38;;;2.60;;
71572;SDS011;59408;51.032;9.410;2022-10-23T09:58:18;5.83;;;2.50;;
71572;SDS011;59408;51.032;9.410;2022-10-23T10:00:46;5.40;;;2.33;;
71572;SDS011;59408;51.032;9.410;2022-10-23T10:03:21;5.70;;;2.30;;
71572;SDS011;59408;51.032;9.410;2022-10-23T10:05:53;5.22;;;2.00;;
71572;SDS011;59408;51.032;9.410;2022-10-23T10:08:22;5.78;;;2.58;;
71572;SDS011;59408;51.032;9.410;2022-10-23T10:10:54;5.90;;;2.47;;
71572;SDS011;59408;51.032;9.410;2022-10-23T10:13:30;6.18;;;2.70;;
71572;SDS011;59408;51.032;9.410;2022-10-23T10:16:09;7.18;;;3.28;;
71572;SDS011;59408;51.032;9.410;2022-10-23T10:18:44;6.18;;;3.05;;
71572;SDS011;59408;51.032;9.410;2022-10-23T10:21:16;6.13;;;2.30;;
71572;SDS011;59408;51.032;9.410;2022-10-23T10:23:47;5.97;;;2.80;;
71572;SDS011;59408;51.032;9.410;2022-10-23T10:26:22;5.90;;;2.40;;
71572;SDS011;59408;51.032;9.410;2022-10-23T10:29:03;5.53;;;2.70;;
71572;SDS011;59408;51.032;9.410;2022-10-23T10:31:40;6.35;;;2.03;;
71572;SDS011;59408;51.032;9.410;2022-10-23T10:34:21;4.90;;;2.20;;
71572;SDS011;59408;51.032;9.410;2022-10-23T10:36:54;6.10;;;2.47;;
71572;SDS011;59408;51.032;9.410;2022-10-23T10:39:34;6.10;;;1.70;;
71572;SDS011;59408;51.032;9.410;2022-10-23T10:42:09;4.68;;;1.90;;
71572;SDS011;59408;51.032;9.410;2022-10-23T10:44:52;6.25;;;2.28;;
71572;SDS011;59408;51.032;9.410;2022-10-23T10:47:28;5.22;;;2.40;;
71572;SDS011;59408;51.032;9.410;2022-10-23T10:50:07;8.90;;;2.37;;
71572;SDS011;59408;51.032;9.410;2022-10-23T10:52:45;5.80;;;2.22;;
71572;SDS011;59408;51.032;9.410;2022-10-23T10:55:21;6.05;;;2.50;;
71572;SDS011;59408;51.032;9.410;2022-10-23T10:57:56;6.07;;;2.38;;
71572;SDS011;59408;51.032;9.410;2022-10-23T11:00:26;5.90;;;2.90;;
71572;SDS011;59408;51.032;9.410;2022-10-23T11:02:56;13.10;;;2.90;;
71572;SDS011;59408;51.032;9.410;2022-10-23T11:05:29;6.40;;;2.50;;
71572;SDS011;59408;51.032;9.410;2022-10-23T11:07:59;7.03;;;2.53;;
71572;SDS011;59408;51.032;9.410;2022-10-23T11:10:30;5.97;;;2.63;;
71572;SDS011;59408;51.032;9.410;2022-10-23T11:12:58;6.60;;;2.40;;
71572;SDS011;59408;51.032;9.410;2022-10-23T11:15:26;8.10;;;2.20;;
71572;SDS011;59408;51.032;9.410;2022-10-23T11:18:00;6.10;;;2.10;;
71572;SDS011;59408;51.032;9.410;2022-10-23T11:20:37;6.38;;;2.10;;
71572;SDS011;59408;51.032;9.410;2022-10-23T11:23:18;5.55;;;2.05;;
71572;SDS011;59408;51.032;9.410;2022-10-23T11:26:00;7.50;;;2.20;;
71572;SDS011;59408;51.032;9.410;2022-10-23T11:28:46;10.43;;;2.60;;
71572;SDS011;59408;51.032;9.410;2022-10-23T11:31:26;6.78;;;2.38;;
71572;SDS011;59408;51.032;9.410;2022-10-23T11:34:13;5.70;;;2.28;;
71572;SDS011;59408;51.032;9.410;2022-10-23T11:37:00;6.15;;;2.08;;
71572;SDS011;59408;51.032;9.410;2022-10-23T11:39:28;6.90;;;2.28;;
71572;SDS011;59408;51.032;9.410;2022-10-23T11:41:57;6.60;;;2.10;;
71572;SDS011;59408;51.032;9.410;2022-10-23T11:44:37;6.20;;;1.90;;
71572;SDS011;59408;51.032;9.410;2022-10-23T11:50:03;7.07;;;3.08;;
71572;SDS011;59408;51.032;9.410;2022-10-23T11:52:54;5.90;;;2.60;;
71572;SDS011;59408;51.032;9.410;2022-10-23T11:55:54;5.63;;;2.20;;
71572;SDS011;59408;51.032;9.410;2022-10-23T11:58:22;6.32;;;2.15;;
71572;SDS011;59408;51.032;9.410;2022-10-23T12:00:53;6.65;;;2.15;;
71572;SDS011;59408;51.032;9.410;2022-10-23T12:03:26;6.90;;;2.40;;
71572;SDS011;59408;51.032;9.410;2022-10-23T12:05:59;4.97;;;2.20;;
71572;SDS011;59408;51.032;9.410;2022-10-23T12:08:31;7.13;;;2.70;;
71572;SDS011;59408;51.032;9.410;2022-10-23T12:11:00;6.97;;;2.58;;
71572;SDS011;59408;51.032;9.410;2022-10-23T12:13:29;6.82;;;2.80;;
71572;SDS011;59408;51.032;9.410;2022-10-23T12:16:07;7.28;;;2.42;;
71572;SDS011;59408;51.032;9.410;2022-10-23T12:18:43;8.50;;;3.83;;
71572;SDS011;59408;51.032;9.410;2022-10-23T12:21:12;8.13;;;4.20;;
71572;SDS011;59408;51.032;9.410;2022-10-23T12:23:50;8.05;;;4.10;;
71572;SDS011;59408;51.032;9.410;2022-10-23T12:26:34;6.88;;;3.40;;
71572;SDS011;59408;51.032;9.410;2022-10-23T12:29:10;5.13;;;2.10;;
71572;SDS011;59408;51.032;9.410;2022-10-23T12:31:50;4.72;;;1.80;;
71572;SDS011;59408;51.032;9.410;2022-10-23T12:34:27;5.20;;;1.60;;
71572;SDS011;59408;51.032;9.410;2022-10-23T12:37:04;5.63;;;1.80;;
71572;SDS011;59408;51.032;9.410;2022-10-23T12:39:50;6.05;;;1.85;;
71572;SDS011;59408;51.032;9.410;2022-10-23T12:42:19;4.63;;;1.50;;
71572;SDS011;59408;51.032;9.410;2022-10-23T12:44:57;4.40;;;1.58;;
71572;SDS011;59408;51.032;9.410;2022-10-23T12:47:24;6.77;;;1.60;;
71572;SDS011;59408;51.032;9.410;2022-10-23T12:49:52;5.82;;;1.38;;
71572;SDS011;59408;51.032;9.410;2022-10-23T12:52:19;4.40;;;1.45;;
71572;SDS011;59408;51.032;9.410;2022-10-23T12:54:48;3.85;;;1.35;;
71572;SDS011;59408;51.032;9.410;2022-10-23T12:57:18;4.30;;;1.30;;
71572;SDS011;59408;51.032;9.410;2022-10-23T12:59:47;6.70;;;1.30;;
71572;SDS011;59408;51.032;9.410;2022-10-23T13:02:20;4.55;;;1.20;;
71572;SDS011;59408;51.032;9.410;2022-10-23T13:04:51;5.85;;;1.40;;
71572;SDS011;59408;51.032;9.410;2022-10-23T13:07:20;3.88;;;1.23;;
71572;SDS011;59408;51.032;9.410;2022-10-23T13:09:52;3.20;;;1.25;;
71572;SDS011;59408;51.032;9.410;2022-10-23T13:12:20;4.63;;;1.27;;
71572;SDS011;59408;51.032;9.410;2022-10-23T13:14:53;4.65;;;1.42;;
71572;SDS011;59408;51.032;9.410;2022-10-23T13:17:31;3.42;;;1.00;;
71572;SDS011;59408;51.032;9.410;2022-10-23T13:20:07;5.13;;;1.48;;
71572;SDS011;59408;51.032;9.410;2022-10-23T13:22:35;4.32;;;1.25;;
71572;SDS011;59408;51.032;9.410;2022-10-23T13:28:01;5.55;;;1.15;;
71572;SDS011;59408;51.032;9.410;2022-10-23T13:30:34;5.60;;;1.20;;
71572;SDS011;59408;51.032;9.410;2022-10-23T13:33:12;3.58;;;1.10;;
71572;SDS011;59408;51.032;9.410;2022-10-23T13:35:39;4.18;;;1.15;;
71572;SDS011;59408;51.032;9.410;2022-10-23T13:38:08;4.20;;;1.10;;
71572;SDS011;59408;51.032;9.410;2022-10-23T13:40:37;3.80;;;1.10;;
71572;SDS011;59408;51.032;9.410;2022-10-23T13:43:04;5.57;;;1.08;;
71572;SDS011;59408;51.032;9.410;2022-10-23T13:45:39;4.35;;;1.30;;
71572;SDS011;59408;51.032;9.410;2022-10-23T13:48:08;4.45;;;1.30;;
71572;SDS011;59408;51.032;9.410;2022-10-23T13:50:38;4.60;;;1.00;;
71572;SDS011;59408;51.032;9.410;2022-10-23T13:53:07;4.38;;;1.10;;
71572;SDS011;59408;51.032;9.410;2022-10-23T13:55:34;3.97;;;1.40;;
71572;SDS011;59408;51.032;9.410;2022-10-23T13:58:02;4.40;;;1.30;;
71572;SDS011;59408;51.032;9.410;2022-10-23T14:00:28;4.18;;;1.30;;
71572;SDS011;59408;51.032;9.410;2022-10-23T14:02:55;4.00;;;1.20;;
71572;SDS011;59408;51.032;9.410;2022-10-23T14:05:21;4.60;;;1.20;;
71572;SDS011;59408;51.032;9.410;2022-10-23T14:07:48;4.20;;;1.10;;
71572;SDS011;59408;51.032;9.410;2022-10-23T14:10:15;3.75;;;1.23;;
71572;SDS011;59408;51.032;9.410;2022-10-23T14:12:42;10.23;;;3.92;;
71572;SDS011;59408;51.032;9.410;2022-10-23T14:15:11;6.37;;;1.30;;
71572;SDS011;59408;51.032;9.410;2022-10-23T14:17:38;5.07;;;1.23;;
71572;SDS011;59408;51.032;9.410;2022-10-23T14:20:05;6.43;;;1.30;;
71572;SDS011;59408;51.032;9.410;2022-10-23T14:22:32;4.82;;;1.27;;
71572;SDS011;59408;51.032;9.410;2022-10-23T14:24:59;3.85;;;1.15;;
71572;SDS011;59408;51.032;9.410;2022-10-23T14:27:25;8.00;;;1.10;;
71572;SDS011;59408;51.032;9.410;2022-10-23T14:29:52;5.05;;;1.10;;
71572;SDS011;59408;51.032;9.410;2022-10-23T14:32:20;6.10;;;1.40;;
71572;SDS011;59408;51.032;9.410;2022-10-23T14:34:48;7.22;;;2.45;;
71572;SDS011;59408;51.032;9.410;2022-10-23T14:37:17;5.53;;;2.17;;
71572;SDS011;59408;51.032;9.410;2022-10-23T14:39:44;5.17;;;1.10;;
71572;SDS011;59408;51.032;9.410;2022-10-23T14:42:15;5.15;;;1.30;;
71572;SDS011;59408;51.032;9.410;2022-10-23T14:44:42;5.10;;;1.52;;
71572;SDS011;59408;51.032;9.410;2022-10-23T14:47:09;4.55;;;1.52;;
71572;SDS011;59408;51.032;9.410;2022-10-23T14:49:37;5.57;;;1.60;;
71572;SDS011;59408;51.032;9.410;2022-10-23T14:52:03;5.70;;;2.13;;
71572;SDS011;59408;51.032;9.410;2022-10-23T14:54:30;5.93;;;1.90;;
71572;SDS011;59408;51.032;9.410;2022-10-23T14:56:56;6.22;;;3.20;;
71572;SDS011;59408;51.032;9.410;2022-10-23T14:59:23;6.35;;;3.00;;
71572;SDS011;59408;51.032;9.410;2022-10-23T15:01:49;18.80;;;9.27;;
71572;SDS011;59408;51.032;9.410;2022-10-23T15:04:16;9.73;;;3.57;;
71572;SDS011;59408;51.032;9.410;2022-10-23T15:06:44;6.75;;;3.10;;
71572;SDS011;59408;51.032;9.410;2022-10-23T15:09:10;6.32;;;2.60;;
71572;SDS011;59408;51.032;9.410;2022-10-23T15:11:37;12.63;;;6.13;;